Leipsic, Delaware
Current Conditions -  °F | °C
As of 6:58 PM on Saturday 25 Oct 2014 (Local Time) from KDOV Reporting Station
Clear Clear  
Wind Chill: 61°   Ceiling: Unl
Heat Index: 61°   Visibility: 8mi
Dew Point: 47°   Wind: 10mph
Humidity: 60%   Direction: 190°S
Pressure: 29.7"   Gusts: NA
Location:  39.1624°N, 75.5199°W
Report Text: KDOV 252258Z AUTO 19009KT 8SM R19/5500FT CLR 16/08 A2970 RMK AO2 SLP061 T01600083
Loading
Personal Weather Stations






























Interactive Weather Map
Tropical Storm Tracking
New forecast layout! Learn more

10-Day Weather Forecast

Advertisements
Track Severe Weather on mobile